Fallon, NV

11:57 PM PDT on October 25, 2014 (GMT -0700)
North Fallon-Rice Rd | Change Station
CLOSE
Current Station
Personal Weather Station
Location: Fallon, NV
Elevation: 3980 ft
Nearby Weather Stations

Elev 3980 ft 39.50 °N, 118.78 °W | Updated 5 seconds ago

Clear
Clear
51.1 °F
Feels Like 51.1 °F
N
6.0
Wind Variable Wind from West
Gusts 7.6 mph

Today
High -- | Low -- °F
--% Chance of Precip.
Yesterday
High -- | Low -- °F
Precip. -- in
7:15 AM 6:01 PM
Waxing Crescent, 6% visible
Pressure 29.94 in
Visibility 10.0 miles
Clouds Clear
Dew Point 18 °F
Humidity 27%
Rainfall 0.00 in
Snow Depth Not available.
UV 0 out of 12
Pollen 3.10 out of 12
Air Quality Not available.
Flu Activity No Activity
METAR KNFL 260556Z AUTO 25007KT 10SM CLR 11/M03 A3003 RMK AO2 SLP138 T01061033 10156 20089 50009

More Conditions Fewer Conditions

Pressure 29.94 in
Visibility 10.0 miles
Clouds Clear
Dew Point 18 °F
Humidity 27%
Rainfall 0.00 in
Snow Depth Not available.
UV 0 out of 12
Pollen 3.10 out of 12
Air Quality Not available.
Flu Activity No Activity
METAR KNFL 260556Z AUTO 25007KT 10SM CLR 11/M03 A3003 RMK AO2 SLP138 T01061033 10156 20089 50009

More Conditions Fewer Conditions

10-Day Weather Forecast

Almanac

Astronomy

Oct. 25, 2014 Rise Set
Actual Time 7:15 AM PDT 6:01 PM PDT
Civil Twilight 6:48 AM PDT 6:29 PM PDT
Nautical Twilight 6:16 AM PDT 7:00 PM PDT
Astronomical Twilight 5:45 AM PDT 7:32 PM PDT
Moon 8:58 AM PDT (10/25) 7:29 PM PDT (10/25)
Length of Visible Light 11h 41m
Length of Day
10h 46m
Tomorrow will be 2m 22s shorter.
Waxing Crescent, 6% of the Moon is Illuminated
Oct 26
Waxing Crescent
Oct 30
First Quarter
Nov 6
Full
Nov 14
Last Quarter
Nov 22
New

Community

WunderPhotos

Upload Photos

1,765,117 photos uploaded!

Nearby

Snow Depth

Station Depth Elevation
Big Meadow 0 in 8300 ft
Marlette Lake 0 in 8000 ft
Big Creek Summit 1 in 8700 ft
Lewis Peak 0 in 7400 ft
Lamance Creek 2 in 6000 ft

Earthquake Activity

City Distance Mag. Time & Date
Gerlach-Empire, Nevada 75 miles 2.5 7:16 AM PDT
2014-10-23
Minimum magnitude displayed is 2.5.

Coastal Water Temperatures

Place Temperature
No Stations Reporting

Nearby Weather Stations